KDRO/DRO METAR and TAF weather

Enter ICAO airport designator
Station Type Date Time Source
KDRO METAR 2019/08/24 19:53 UTC NOAA

KDRO 241953Z AUTO 25016G27KT 10SM CLR 31/M01 A3017 RMK AO2 PK WND 26030/1926 SLP125 T03111006


Station Type Date Time Source
KDRO Decoded METAR 2019/08/24 19:53 UTC NOAA

Station name not available
Aug 24, 2019 - 03:53 PM EDT / 2019.08.24 1953 UTC
Wind: from the WSW (250 degrees) at 18 MPH (16 KT) gusting to 31 MPH (27 KT):0
Visibility: 10 mile(s):0
Sky conditions: clear
Temperature: 88.0 F (31.1 C)
Dew Point: 30.9 F (-0.6 C)
Relative Humidity: 12%
Pressure (altimeter): 30.17 in. Hg (1021 hPa)
ob: KDRO 241953Z AUTO 25016G27KT 10SM CLR 31/M01 A3017 RMK AO2 PK WND 26030/1926 SLP125 T03111006
cycle: 20

Station Type Date Time Source
KDRO TAF 2019/08/24 18:22 UTC NOAA

TAF KDRO 241720Z 2418/2518 26009KT P6SM FEW150 FEW250
FM242000 27011G22KT P6SM FEW150 FEW250
FM250300 32005KT P6SM SKC
FM251000 04005KT P6SM SKC

Example: see airport list